createdAt,value
2018-12-14T00:00:42.996Z,1022.32
2018-12-14T00:01:48.528Z,1022.39
2018-12-14T00:02:54.064Z,1022.38
2018-12-14T00:03:59.596Z,1022.38
2018-12-14T00:05:05.125Z,1022.36
2018-12-14T00:06:10.653Z,1022.39
2018-12-14T00:07:16.181Z,1022.36
2018-12-14T00:08:21.713Z,1022.30
2018-12-14T00:09:27.249Z,1022.30
2018-12-14T00:10:32.774Z,1022.30
2018-12-14T00:11:38.302Z,1022.31
2018-12-14T00:12:43.836Z,1022.29
2018-12-14T00:13:49.364Z,1022.29
2018-12-14T00:14:54.900Z,1022.30
2018-12-14T00:16:00.432Z,1022.27
2018-12-14T00:17:05.956Z,1022.29
2018-12-14T00:18:11.487Z,1022.29
2018-12-14T00:19:17.024Z,1022.29
2018-12-14T00:20:22.553Z,1022.33
2018-12-14T00:21:28.076Z,1022.29
2018-12-14T00:22:33.615Z,1022.34
2018-12-14T00:23:39.141Z,1022.32
2018-12-14T00:24:44.677Z,1022.36
2018-12-14T00:25:50.201Z,1022.35
2018-12-14T00:26:55.742Z,1022.33
2018-12-14T00:28:01.266Z,1022.33
2018-12-14T00:29:06.796Z,1022.32
2018-12-14T00:30:12.322Z,1022.35
2018-12-14T00:31:17.852Z,1022.36
2018-12-14T00:32:23.384Z,1022.34
2018-12-14T00:33:28.915Z,1022.34
2018-12-14T00:34:34.447Z,1022.39
2018-12-14T00:35:39.982Z,1022.36
2018-12-14T00:36:45.505Z,1022.35
2018-12-14T00:37:51.039Z,1022.39
2018-12-14T00:38:56.569Z,1022.39
2018-12-14T00:40:02.103Z,1022.41
2018-12-14T00:41:07.629Z,1022.40
2018-12-14T00:42:13.160Z,1022.39
2018-12-14T00:43:18.690Z,1022.36
2018-12-14T00:44:24.222Z,1022.38
2018-12-14T00:45:29.750Z,1022.41
2018-12-14T00:46:35.282Z,1022.45
2018-12-14T00:47:40.815Z,1022.48
2018-12-14T00:48:46.343Z,1022.51
2018-12-14T00:49:51.876Z,1022.52
2018-12-14T00:50:57.408Z,1022.53
2018-12-14T00:52:02.931Z,1022.52
2018-12-14T00:53:08.464Z,1022.50
2018-12-14T00:54:13.996Z,1022.49
2018-12-14T00:55:19.524Z,1022.48
2018-12-14T00:56:25.053Z,1022.48
2018-12-14T00:57:30.585Z,1022.51
2018-12-14T00:58:36.119Z,1022.48
2018-12-14T00:59:41.648Z,1022.51
2018-12-14T01:00:47.174Z,1022.53
2018-12-14T01:01:52.707Z,1022.53
2018-12-14T01:02:58.233Z,1022.55
2018-12-14T01:04:03.769Z,1022.56
2018-12-14T01:05:09.295Z,1022.56
2018-12-14T01:06:14.832Z,1022.56
2018-12-14T01:07:20.355Z,1022.57
2018-12-14T01:08:25.888Z,1022.59
2018-12-14T01:09:31.421Z,1022.51
2018-12-14T01:10:36.948Z,1022.52
2018-12-14T01:11:42.479Z,1022.56
2018-12-14T01:12:48.008Z,1022.54
2018-12-14T01:13:53.536Z,1022.54
2018-12-14T01:14:59.067Z,1022.54
2018-12-14T01:16:04.606Z,1022.48
2018-12-14T01:17:10.172Z,1022.57
2018-12-14T01:18:15.666Z,1022.58
2018-12-14T01:19:21.193Z,1022.54
2018-12-14T01:20:26.715Z,1022.57
2018-12-14T01:21:32.248Z,1022.56
2018-12-14T01:22:37.784Z,1022.59
2018-12-14T01:23:43.311Z,1022.60
2018-12-14T01:24:48.839Z,1022.63
2018-12-14T01:25:54.380Z,1022.61
2018-12-14T01:26:59.898Z,1022.61
2018-12-14T01:28:05.433Z,1022.60
2018-12-14T01:29:11.031Z,1022.63
2018-12-14T01:30:16.497Z,1022.70
2018-12-14T01:31:22.022Z,1022.69
2018-12-14T01:32:27.553Z,1022.69
2018-12-14T01:33:33.088Z,1022.64
2018-12-14T01:34:38.617Z,1022.62
2018-12-14T01:35:44.142Z,1022.63
2018-12-14T01:36:49.674Z,1022.57
2018-12-14T01:37:55.201Z,1022.60
2018-12-14T01:39:00.730Z,1022.64
2018-12-14T01:40:06.269Z,1022.59
2018-12-14T01:41:11.794Z,1022.60
2018-12-14T01:42:17.321Z,1022.57
2018-12-14T01:43:22.851Z,1022.57
2018-12-14T01:44:28.381Z,1022.59
2018-12-14T01:45:33.918Z,1022.60
2018-12-14T01:46:39.449Z,1022.55
2018-12-14T01:47:44.980Z,1022.60
2018-12-14T01:48:50.511Z,1022.55
2018-12-14T01:49:56.036Z,1022.50
2018-12-14T01:51:01.570Z,1022.52
2018-12-14T01:52:07.098Z,1022.52
2018-12-14T01:53:12.631Z,1022.52
2018-12-14T01:54:18.159Z,1022.49
2018-12-14T01:55:23.693Z,1022.51
2018-12-14T01:56:29.215Z,1022.47
2018-12-14T01:57:34.757Z,1022.46
2018-12-14T01:58:40.281Z,1022.43
2018-12-14T01:59:45.812Z,1022.45
2018-12-14T02:00:51.343Z,1022.42
2018-12-14T02:01:56.873Z,1022.52
2018-12-14T02:03:02.401Z,1022.50
2018-12-14T02:04:07.929Z,1022.52
2018-12-14T02:05:13.459Z,1022.48
2018-12-14T02:06:18.989Z,1022.42
2018-12-14T02:07:24.522Z,1022.42
2018-12-14T02:08:30.055Z,1022.37
2018-12-14T02:09:35.586Z,1022.37
2018-12-14T02:10:41.114Z,1022.35
2018-12-14T02:11:46.642Z,1022.39
2018-12-14T02:12:52.173Z,1022.38
2018-12-14T02:13:57.702Z,1022.41
2018-12-14T02:15:03.239Z,1022.34
2018-12-14T02:16:08.764Z,1022.29
2018-12-14T02:17:14.325Z,1022.33
2018-12-14T02:18:19.829Z,1022.33
2018-12-14T02:19:25.932Z,1022.42
2018-12-14T02:20:30.889Z,1022.41
2018-12-14T02:21:36.417Z,1022.38
2018-12-14T02:22:41.959Z,1022.36
2018-12-14T02:23:47.482Z,1022.37
2018-12-14T02:24:53.018Z,1022.31
2018-12-14T02:25:58.542Z,1022.31
2018-12-14T02:27:04.070Z,1022.29
2018-12-14T02:28:09.615Z,1022.27
2018-12-14T02:29:15.132Z,1022.18
2018-12-14T02:30:20.664Z,1022.18
2018-12-14T02:31:26.193Z,1022.10
2018-12-14T02:32:31.721Z,1022.12
2018-12-14T02:33:37.249Z,1022.17
2018-12-14T02:34:42.790Z,1022.18
2018-12-14T02:35:48.319Z,1022.22
2018-12-14T02:36:53.841Z,1022.22
2018-12-14T02:37:59.372Z,1022.15
2018-12-14T02:39:04.905Z,1022.15
2018-12-14T02:40:10.432Z,1022.19
2018-12-14T02:41:15.971Z,1022.26
2018-12-14T02:42:21.493Z,1022.30
2018-12-14T02:43:27.026Z,1022.32
2018-12-14T02:44:32.556Z,1022.38
2018-12-14T02:45:38.086Z,1022.37
2018-12-14T02:46:43.629Z,1022.41
2018-12-14T02:47:49.152Z,1022.34
2018-12-14T02:48:54.677Z,1022.29
2018-12-14T02:50:00.208Z,1022.34
2018-12-14T02:51:05.743Z,1022.38
2018-12-14T02:52:11.273Z,1022.42
2018-12-14T02:53:16.805Z,1022.34
2018-12-14T02:54:22.331Z,1022.32
2018-12-14T02:55:27.861Z,1022.33
2018-12-14T02:56:33.392Z,1022.30
2018-12-14T02:57:38.925Z,1022.26
2018-12-14T02:58:44.452Z,1022.23
2018-12-14T02:59:49.976Z,1022.22
2018-12-14T03:00:55.511Z,1022.25
2018-12-14T03:02:01.040Z,1022.23
2018-12-14T03:03:06.571Z,1022.14
2018-12-14T03:04:12.106Z,1022.15
2018-12-14T03:05:17.632Z,1022.11
2018-12-14T03:06:23.165Z,1022.19
2018-12-14T03:07:28.697Z,1022.20
2018-12-14T03:08:34.222Z,1022.24
2018-12-14T03:09:39.761Z,1022.24
2018-12-14T03:10:45.289Z,1022.25
2018-12-14T03:11:50.815Z,1022.24
2018-12-14T03:12:56.343Z,1022.23
2018-12-14T03:14:01.877Z,1022.24
2018-12-14T03:15:07.412Z,1022.21
2018-12-14T03:16:12.936Z,1022.23
2018-12-14T03:17:18.462Z,1022.25
2018-12-14T03:18:23.996Z,1022.22
2018-12-14T03:19:29.525Z,1022.20
2018-12-14T03:20:35.057Z,1022.24
2018-12-14T03:21:40.592Z,1022.24
2018-12-14T03:22:46.114Z,1022.23
2018-12-14T03:23:51.645Z,1022.28
2018-12-14T03:24:57.179Z,1022.23
2018-12-14T03:26:02.713Z,1022.28
2018-12-14T03:27:08.238Z,1022.30
2018-12-14T03:28:13.773Z,1022.30
2018-12-14T03:29:19.295Z,1022.31
2018-12-14T03:30:24.831Z,1022.30
2018-12-14T03:31:30.359Z,1022.29
2018-12-14T03:32:35.888Z,1022.31
2018-12-14T03:33:41.419Z,1022.37
2018-12-14T03:34:46.948Z,1022.35
2018-12-14T03:35:52.477Z,1022.42
2018-12-14T03:36:58.009Z,1022.39
2018-12-14T03:38:03.599Z,1022.38
2018-12-14T03:39:09.068Z,1022.41
2018-12-14T03:40:14.600Z,1022.41
2018-12-14T03:41:20.126Z,1022.39
2018-12-14T03:42:25.659Z,1022.41
2018-12-14T03:43:31.197Z,1022.40
2018-12-14T03:44:36.719Z,1022.38
2018-12-14T03:45:42.256Z,1022.37
2018-12-14T03:46:47.784Z,1022.40
2018-12-14T03:47:53.317Z,1022.37
2018-12-14T03:48:58.840Z,1022.43
2018-12-14T03:50:04.371Z,1022.36
2018-12-14T03:51:09.907Z,1022.35
2018-12-14T03:52:15.430Z,1022.35
2018-12-14T03:53:20.967Z,1022.37
2018-12-14T03:54:26.504Z,1022.36
2018-12-14T03:55:32.025Z,1022.40
2018-12-14T03:56:37.553Z,1022.33
2018-12-14T03:57:43.083Z,1022.40
2018-12-14T03:58:48.614Z,1022.39
2018-12-14T03:59:54.142Z,1022.32
2018-12-14T04:00:59.672Z,1022.37
2018-12-14T04:02:05.207Z,1022.37
2018-12-14T04:03:10.732Z,1022.35
2018-12-14T04:04:16.265Z,1022.34
2018-12-14T04:05:21.792Z,1022.33
2018-12-14T04:06:27.325Z,1022.30
2018-12-14T04:07:32.857Z,1022.32
2018-12-14T04:08:38.389Z,1022.31
2018-12-14T04:09:43.918Z,1022.30
2018-12-14T04:10:49.447Z,1022.27
2018-12-14T04:11:54.975Z,1022.26
2018-12-14T04:13:00.505Z,1022.26
2018-12-14T04:14:06.036Z,1022.26
2018-12-14T04:15:11.576Z,1022.24
2018-12-14T04:16:17.096Z,1022.21
2018-12-14T04:17:22.624Z,1022.21
2018-12-14T04:18:28.157Z,1022.26
2018-12-14T04:19:33.686Z,1022.25
2018-12-14T04:20:39.218Z,1022.23
2018-12-14T04:21:44.752Z,1022.23
2018-12-14T04:22:50.278Z,1022.22
2018-12-14T04:23:55.809Z,1022.25
2018-12-14T04:25:01.338Z,1022.24
2018-12-14T04:26:06.871Z,1022.24
2018-12-14T04:27:12.395Z,1022.21
2018-12-14T04:28:17.926Z,1022.18
2018-12-14T04:29:23.459Z,1022.16
2018-12-14T04:30:28.994Z,1022.17
2018-12-14T04:31:34.528Z,1022.18
2018-12-14T04:32:40.047Z,1022.22
2018-12-14T04:33:45.583Z,1022.23
2018-12-14T04:34:51.117Z,1022.18
2018-12-14T04:35:56.640Z,1022.19
2018-12-14T04:37:02.172Z,1022.22
2018-12-14T04:38:07.713Z,1022.22
2018-12-14T04:39:13.228Z,1022.22
2018-12-14T04:40:18.761Z,1022.26
2018-12-14T04:41:24.293Z,1022.24
2018-12-14T04:42:29.823Z,1022.21
2018-12-14T04:43:35.356Z,1022.27
2018-12-14T04:44:40.888Z,1022.24
2018-12-14T04:45:46.419Z,1022.21
2018-12-14T04:46:51.949Z,1022.30
2018-12-14T04:47:57.475Z,1022.31
2018-12-14T04:49:03.006Z,1022.27
2018-12-14T04:50:08.537Z,1022.26
2018-12-14T04:51:14.066Z,1022.31
2018-12-14T04:52:19.598Z,1022.35
2018-12-14T04:53:25.126Z,1022.36
2018-12-14T04:54:30.663Z,1022.34
2018-12-14T04:55:36.188Z,1022.33
2018-12-14T04:56:41.725Z,1022.30
2018-12-14T04:57:47.250Z,1022.30
2018-12-14T04:58:52.781Z,1022.32
2018-12-14T04:59:58.313Z,1022.30
2018-12-14T05:01:03.842Z,1022.32
2018-12-14T05:02:09.375Z,1022.28
2018-12-14T05:03:14.899Z,1022.27
2018-12-14T05:04:20.431Z,1022.34
2018-12-14T05:05:25.970Z,1022.31
2018-12-14T05:06:31.596Z,1022.31
2018-12-14T05:07:37.019Z,1022.33
2018-12-14T05:08:42.550Z,1022.33
2018-12-14T05:09:48.083Z,1022.31
2018-12-14T05:10:53.618Z,1022.30
2018-12-14T05:11:59.146Z,1022.30
2018-12-14T05:13:04.682Z,1022.32
2018-12-14T05:14:10.207Z,1022.30
2018-12-14T05:15:15.732Z,1022.33
2018-12-14T05:16:21.270Z,1022.30
2018-12-14T05:17:26.794Z,1022.32
2018-12-14T05:18:32.327Z,1022.38
2018-12-14T05:19:37.861Z,1022.33
2018-12-14T05:20:43.386Z,1022.33
2018-12-14T05:21:48.920Z,1022.36
2018-12-14T05:22:54.443Z,1022.38
2018-12-14T05:23:59.978Z,1022.36
2018-12-14T05:25:05.512Z,1022.30
2018-12-14T05:26:11.036Z,1022.26
2018-12-14T05:27:16.570Z,1022.32
2018-12-14T05:28:22.102Z,1022.32
2018-12-14T05:29:27.626Z,1022.29
2018-12-14T05:30:33.158Z,1022.35
2018-12-14T05:31:38.688Z,1022.25
2018-12-14T05:32:44.222Z,1022.29
2018-12-14T05:33:49.749Z,1022.29
2018-12-14T05:34:55.280Z,1022.31
2018-12-14T05:36:00.811Z,1022.33
2018-12-14T05:37:06.344Z,1022.34
2018-12-14T05:38:11.866Z,1022.33
2018-12-14T05:39:17.401Z,1022.30
2018-12-14T05:40:22.928Z,1022.32
2018-12-14T05:41:28.465Z,1022.37
2018-12-14T05:42:33.993Z,1022.37
2018-12-14T05:43:39.519Z,1022.35
2018-12-14T05:44:45.051Z,1022.39
2018-12-14T05:45:50.583Z,1022.35
2018-12-14T05:46:56.112Z,1022.34
2018-12-14T05:48:01.641Z,1022.30
2018-12-14T05:49:07.175Z,1022.31
2018-12-14T05:50:12.700Z,1022.30
2018-12-14T05:51:18.238Z,1022.30
2018-12-14T05:52:23.762Z,1022.35
2018-12-14T05:53:29.295Z,1022.34
2018-12-14T05:54:34.823Z,1022.30
2018-12-14T05:55:40.350Z,1022.34
2018-12-14T05:56:45.881Z,1022.31
2018-12-14T05:57:51.411Z,1022.32
2018-12-14T05:58:56.942Z,1022.25
2018-12-14T06:00:02.472Z,1022.30
2018-12-14T06:01:08.003Z,1022.28
2018-12-14T06:02:13.537Z,1022.24
2018-12-14T06:03:19.062Z,1022.22
2018-12-14T06:04:24.591Z,1022.22
2018-12-14T06:05:30.122Z,1022.21
2018-12-14T06:06:35.650Z,1022.27
2018-12-14T06:07:41.182Z,1022.26
2018-12-14T06:08:46.715Z,1022.22
2018-12-14T06:09:52.246Z,1022.25
2018-12-14T06:10:57.774Z,1022.24
2018-12-14T06:12:03.306Z,1022.28
2018-12-14T06:13:09.331Z,1022.34
2018-12-14T06:14:14.365Z,1022.24
2018-12-14T06:15:19.895Z,1022.19
2018-12-14T06:16:25.427Z,1022.29
2018-12-14T06:17:30.957Z,1022.28
2018-12-14T06:18:36.484Z,1022.29
2018-12-14T06:19:42.017Z,1022.30
2018-12-14T06:20:47.546Z,1022.29
2018-12-14T06:21:53.081Z,1022.34
2018-12-14T06:22:58.607Z,1022.35
2018-12-14T06:24:04.141Z,1022.35
2018-12-14T06:25:09.675Z,1022.38
2018-12-14T06:26:15.204Z,1022.42
2018-12-14T06:27:20.731Z,1022.48
2018-12-14T06:28:26.262Z,1022.52
2018-12-14T06:29:31.809Z,1022.54
2018-12-14T06:30:37.318Z,1022.56
2018-12-14T06:31:42.856Z,1022.59
2018-12-14T06:32:48.388Z,1022.61
2018-12-14T06:33:53.916Z,1022.57
2018-12-14T06:34:59.442Z,1022.54
2018-12-14T06:36:04.975Z,1022.52
2018-12-14T06:37:10.507Z,1022.49
2018-12-14T06:38:16.030Z,1022.50
2018-12-14T06:39:21.558Z,1022.50
2018-12-14T06:40:27.093Z,1022.44
2018-12-14T06:41:32.620Z,1022.48
2018-12-14T06:42:38.151Z,1022.52
2018-12-14T06:43:43.684Z,1022.47
2018-12-14T06:44:49.215Z,1022.53
2018-12-14T06:45:54.741Z,1022.52
2018-12-14T06:47:00.271Z,1022.52
2018-12-14T06:48:05.801Z,1022.55
2018-12-14T06:49:11.332Z,1022.55
2018-12-14T06:50:16.859Z,1022.61
2018-12-14T06:51:22.394Z,1022.60
2018-12-14T06:52:27.923Z,1022.62
2018-12-14T06:53:33.450Z,1022.66
2018-12-14T06:54:38.983Z,1022.65
2018-12-14T06:55:44.512Z,1022.63
2018-12-14T06:56:50.042Z,1022.65
2018-12-14T06:57:55.570Z,1022.59
2018-12-14T06:59:01.099Z,1022.58
2018-12-14T07:00:06.950Z,1022.57
2018-12-14T07:01:12.158Z,1022.62
2018-12-14T07:02:17.689Z,1022.64
2018-12-14T07:03:23.224Z,1022.67
2018-12-14T07:04:28.747Z,1022.65
2018-12-14T07:05:34.284Z,1022.66
2018-12-14T07:06:39.814Z,1022.70
2018-12-14T07:07:45.338Z,1022.71
2018-12-14T07:08:50.870Z,1022.72
2018-12-14T07:09:56.408Z,1022.76
2018-12-14T07:11:01.937Z,1022.81
2018-12-14T07:12:07.468Z,1022.81
2018-12-14T07:13:12.993Z,1022.82
2018-12-14T07:14:18.668Z,1022.83
2018-12-14T07:15:24.056Z,1022.86
2018-12-14T07:16:29.587Z,1022.86
2018-12-14T07:17:35.111Z,1022.84
2018-12-14T07:18:40.640Z,1022.86
2018-12-14T07:19:46.174Z,1022.83
2018-12-14T07:20:51.696Z,1022.87
2018-12-14T07:21:57.237Z,1022.89
2018-12-14T07:23:02.760Z,1022.87
2018-12-14T07:24:08.288Z,1022.94
2018-12-14T07:25:13.826Z,1022.96
2018-12-14T07:26:19.345Z,1022.95
2018-12-14T07:27:24.879Z,1022.93
2018-12-14T07:28:30.410Z,1022.92
2018-12-14T07:29:35.943Z,1022.95
2018-12-14T07:30:41.578Z,1022.95
2018-12-14T07:31:46.997Z,1022.90
2018-12-14T07:32:52.527Z,1022.93
2018-12-14T07:33:58.063Z,1022.91
2018-12-14T07:35:03.593Z,1022.89
2018-12-14T07:36:09.118Z,1022.92
2018-12-14T07:37:14.652Z,1022.98
2018-12-14T07:38:20.179Z,1022.92
2018-12-14T07:39:25.707Z,1022.93
2018-12-14T07:40:31.243Z,1022.90
2018-12-14T07:41:36.773Z,1022.92
2018-12-14T07:42:42.306Z,1022.90
2018-12-14T07:43:47.834Z,1022.97
2018-12-14T07:44:53.522Z,1022.99
2018-12-14T07:45:58.895Z,1023.00
2018-12-14T07:47:04.420Z,1022.98
2018-12-14T07:48:09.957Z,1023.04
2018-12-14T07:49:15.481Z,1023.06
2018-12-14T07:50:21.013Z,1023.05
2018-12-14T07:51:26.552Z,1023.08
2018-12-14T07:52:32.073Z,1023.11
2018-12-14T07:53:37.604Z,1023.10
2018-12-14T07:54:43.134Z,1023.10
2018-12-14T07:55:48.667Z,1023.07
2018-12-14T07:56:55.692Z,1023.02
2018-12-14T07:57:59.726Z,1023.09
2018-12-14T07:59:05.262Z,1023.14
2018-12-14T08:00:10.786Z,1023.12
2018-12-14T08:01:16.318Z,1023.17
2018-12-14T08:02:21.847Z,1023.15
2018-12-14T08:03:27.377Z,1023.16
2018-12-14T08:04:32.911Z,1023.16
2018-12-14T08:05:38.444Z,1023.19
2018-12-14T08:06:43.969Z,1023.25
2018-12-14T08:07:49.497Z,1023.28
2018-12-14T08:08:55.030Z,1023.31
2018-12-14T08:10:00.560Z,1023.35
2018-12-14T08:11:06.090Z,1023.32
2018-12-14T08:12:11.624Z,1023.36
2018-12-14T08:13:17.154Z,1023.36
2018-12-14T08:14:22.679Z,1023.33
2018-12-14T08:15:28.218Z,1023.38
2018-12-14T08:16:33.750Z,1023.41
2018-12-14T08:17:39.274Z,1023.36
2018-12-14T08:18:44.802Z,1023.36
2018-12-14T08:19:50.338Z,1023.36
2018-12-14T08:20:55.866Z,1023.32
2018-12-14T08:22:01.396Z,1023.29
2018-12-14T08:23:06.923Z,1023.28
2018-12-14T08:24:12.458Z,1023.24
2018-12-14T08:25:17.993Z,1023.28
2018-12-14T08:26:23.517Z,1023.29
2018-12-14T08:27:29.046Z,1023.30
2018-12-14T08:28:34.583Z,1023.31
2018-12-14T08:29:40.108Z,1023.38
2018-12-14T08:30:45.637Z,1023.39
2018-12-14T08:31:51.170Z,1023.44
2018-12-14T08:32:56.706Z,1023.42
2018-12-14T08:34:02.231Z,1023.46
2018-12-14T08:35:07.765Z,1023.47
2018-12-14T08:36:13.296Z,1023.51
2018-12-14T08:37:18.825Z,1023.53
2018-12-14T08:38:24.358Z,1023.54
2018-12-14T08:39:29.886Z,1023.53
2018-12-14T08:40:35.418Z,1023.59
2018-12-14T08:41:40.943Z,1023.54
2018-12-14T08:42:46.472Z,1023.59
2018-12-14T08:43:52.011Z,1023.63
2018-12-14T08:44:57.534Z,1023.59
2018-12-14T08:46:03.067Z,1023.61
2018-12-14T08:47:08.598Z,1023.59
2018-12-14T08:48:14.128Z,1023.60
2018-12-14T08:49:19.665Z,1023.62
2018-12-14T08:50:25.193Z,1023.62
2018-12-14T08:51:30.720Z,1023.66
2018-12-14T08:52:36.252Z,1023.66
2018-12-14T08:53:41.782Z,1023.70
2018-12-14T08:54:47.309Z,1023.67
2018-12-14T08:55:52.840Z,1023.66
2018-12-14T08:56:58.375Z,1023.67
2018-12-14T08:58:03.900Z,1023.71
2018-12-14T08:59:09.438Z,1023.71
2018-12-14T09:00:14.963Z,1023.69
2018-12-14T09:01:20.493Z,1023.74
2018-12-14T09:02:26.023Z,1023.73
2018-12-14T09:03:31.554Z,1023.73
2018-12-14T09:04:37.084Z,1023.76
2018-12-14T09:05:42.617Z,1023.73
2018-12-14T09:06:48.147Z,1023.75
2018-12-14T09:07:53.682Z,1023.77
2018-12-14T09:08:59.207Z,1023.82
2018-12-14T09:10:04.739Z,1023.85
2018-12-14T09:11:10.272Z,1023.84
2018-12-14T09:12:15.801Z,1023.85
2018-12-14T09:13:21.329Z,1023.81
2018-12-14T09:14:26.867Z,1023.78
2018-12-14T09:15:32.402Z,1023.78
2018-12-14T09:16:37.927Z,1023.80
2018-12-14T09:17:43.457Z,1023.80
2018-12-14T09:18:48.988Z,1023.82
2018-12-14T09:19:54.520Z,1023.84
2018-12-14T09:21:01.231Z,1023.88
2018-12-14T09:22:05.582Z,1023.88
2018-12-14T09:23:11.108Z,1023.83
2018-12-14T09:24:16.634Z,1023.84
2018-12-14T09:25:22.167Z,1023.86
2018-12-14T09:26:27.701Z,1023.88
2018-12-14T09:27:33.230Z,1023.89
2018-12-14T09:28:38.756Z,1023.87
2018-12-14T09:29:44.294Z,1023.86
2018-12-14T09:30:49.818Z,1023.90
2018-12-14T09:31:55.350Z,1023.89
2018-12-14T09:33:00.879Z,1023.89
2018-12-14T09:34:06.415Z,1023.93
2018-12-14T09:35:11.942Z,1023.93
2018-12-14T09:36:17.474Z,1023.95
2018-12-14T09:37:23.007Z,1023.92
2018-12-14T09:38:28.533Z,1023.96
2018-12-14T09:39:34.063Z,1023.90
2018-12-14T09:40:39.594Z,1023.95
2018-12-14T09:41:45.124Z,1023.89
2018-12-14T09:42:50.659Z,1023.90
2018-12-14T09:43:56.182Z,1023.88
2018-12-14T09:45:01.715Z,1023.90
2018-12-14T09:46:07.242Z,1023.85
2018-12-14T09:47:12.775Z,1023.92
2018-12-14T09:48:18.304Z,1023.87
2018-12-14T09:49:23.835Z,1023.93
2018-12-14T09:50:29.374Z,1023.96
2018-12-14T09:51:34.895Z,1023.95
2018-12-14T09:52:40.432Z,1023.90
2018-12-14T09:53:45.954Z,1023.99
2018-12-14T09:54:51.492Z,1024.03
2018-12-14T09:55:57.018Z,1023.96
2018-12-14T09:57:02.545Z,1024.01
2018-12-14T09:58:08.075Z,1024.04
2018-12-14T09:59:13.612Z,1024.07
2018-12-14T10:00:19.144Z,1024.07
2018-12-14T10:01:24.673Z,1024.03
2018-12-14T10:02:30.203Z,1024.05
2018-12-14T10:03:35.734Z,1024.05
2018-12-14T10:04:41.267Z,1024.05
2018-12-14T10:05:46.791Z,1024.08
2018-12-14T10:06:52.327Z,1024.10
2018-12-14T10:07:57.853Z,1024.08
2018-12-14T10:09:03.389Z,1024.09
2018-12-14T10:10:08.914Z,1024.11
2018-12-14T10:11:14.449Z,1024.07
2018-12-14T10:12:19.975Z,1024.08
2018-12-14T10:13:25.502Z,1024.09
2018-12-14T10:14:31.034Z,1024.08
2018-12-14T10:15:36.563Z,1024.08
2018-12-14T10:16:42.097Z,1024.07
2018-12-14T10:17:47.628Z,1024.11
2018-12-14T10:18:53.157Z,1024.10
2018-12-14T10:21:30.279Z,1024.04
2018-12-14T10:22:41.398Z,1024.08
2018-12-14T10:23:41.314Z,1024.07
2018-12-14T10:24:46.850Z,1024.04
2018-12-14T10:25:52.378Z,1024.06
2018-12-14T10:26:57.904Z,1024.04
2018-12-14T10:28:03.435Z,1024.08
2018-12-14T10:29:08.967Z,1024.04
2018-12-14T10:30:14.497Z,1024.05
2018-12-14T10:31:20.022Z,1024.07
2018-12-14T10:32:25.551Z,1024.04
2018-12-14T10:33:31.090Z,1024.02
2018-12-14T10:34:36.613Z,1024.04
2018-12-14T10:35:42.145Z,1024.03
2018-12-14T10:36:47.673Z,1024.06
2018-12-14T10:37:53.210Z,1024.04
2018-12-14T10:38:58.741Z,1024.05
2018-12-14T10:40:04.268Z,1024.04
2018-12-14T10:41:09.793Z,1024.05
2018-12-14T10:42:15.326Z,1024.06
2018-12-14T10:43:20.861Z,1024.08
2018-12-14T10:44:29.757Z,1024.07
2018-12-14T10:45:31.919Z,1024.12
2018-12-14T10:46:37.446Z,1024.08
2018-12-14T10:47:42.983Z,1024.07
2018-12-14T10:48:48.508Z,1024.06
2018-12-14T10:49:54.043Z,1024.06
2018-12-14T10:50:59.568Z,1024.05
2018-12-14T10:52:05.101Z,1024.09
2018-12-14T10:53:10.682Z,1024.05
2018-12-14T10:54:16.159Z,1024.09
2018-12-14T10:55:21.695Z,1024.08
2018-12-14T10:56:27.223Z,1024.06
2018-12-14T10:57:32.750Z,1024.07
2018-12-14T10:58:38.281Z,1024.05
2018-12-14T10:59:43.810Z,1024.07
2018-12-14T11:00:49.346Z,1024.05
2018-12-14T11:01:54.872Z,1024.02
2018-12-14T11:03:00.411Z,1024.05
2018-12-14T11:04:05.937Z,1024.08
2018-12-14T11:05:11.463Z,1024.05
2018-12-14T11:06:16.994Z,1024.11
2018-12-14T11:07:22.523Z,1024.08
2018-12-14T11:08:28.058Z,1024.07
2018-12-14T11:09:33.586Z,1024.07
2018-12-14T11:10:39.115Z,1024.04
2018-12-14T11:11:44.645Z,1024.00
2018-12-14T11:12:50.179Z,1024.06
2018-12-14T11:13:55.710Z,1024.03
2018-12-14T11:15:01.245Z,1024.03
2018-12-14T11:16:06.770Z,1024.07
2018-12-14T11:17:12.297Z,1024.06
2018-12-14T11:18:17.833Z,1024.01
2018-12-14T11:19:23.363Z,1024.00
2018-12-14T11:20:28.889Z,1024.03
2018-12-14T11:21:34.424Z,1023.98
2018-12-14T11:22:39.950Z,1023.98
2018-12-14T11:23:45.503Z,1023.97
2018-12-14T11:24:51.014Z,1023.99
2018-12-14T11:25:56.546Z,1023.98
2018-12-14T11:27:02.072Z,1023.95
2018-12-14T11:28:07.604Z,1023.96
2018-12-14T11:29:13.132Z,1023.97
2018-12-14T11:30:18.665Z,1023.92
2018-12-14T11:31:24.195Z,1023.92
2018-12-14T11:32:29.724Z,1023.91
2018-12-14T11:33:35.252Z,1023.90
2018-12-14T11:34:40.787Z,1023.92
2018-12-14T11:35:46.315Z,1023.91
2018-12-14T11:36:51.845Z,1023.87
2018-12-14T11:37:57.382Z,1023.88
2018-12-14T11:39:04.251Z,1023.88
2018-12-14T11:40:08.436Z,1023.89
2018-12-14T11:41:18.463Z,1023.88
2018-12-14T11:42:19.505Z,1023.85
2018-12-14T11:43:25.034Z,1023.88
2018-12-14T11:44:30.565Z,1023.85
2018-12-14T11:45:36.090Z,1023.82
2018-12-14T11:46:41.622Z,1023.86
2018-12-14T11:47:47.151Z,1023.82
2018-12-14T11:48:52.682Z,1023.84
2018-12-14T11:49:58.209Z,1023.85
2018-12-14T11:51:03.741Z,1023.81
2018-12-14T11:52:09.270Z,1023.80
2018-12-14T11:53:14.806Z,1023.87
2018-12-14T11:54:20.332Z,1023.82
2018-12-14T11:55:25.863Z,1023.83
2018-12-14T11:56:31.395Z,1023.84
2018-12-14T11:57:36.928Z,1023.85
2018-12-14T11:58:42.451Z,1023.77
2018-12-14T11:59:47.985Z,1023.79
2018-12-14T12:00:53.517Z,1023.80
2018-12-14T12:01:59.049Z,1023.82
2018-12-14T12:03:04.575Z,1023.83
2018-12-14T12:04:10.107Z,1023.81
2018-12-14T12:05:15.638Z,1023.84
2018-12-14T12:06:21.168Z,1023.84
2018-12-14T12:07:26.697Z,1023.87
2018-12-14T12:08:32.228Z,1023.82
2018-12-14T12:09:37.760Z,1023.83
2018-12-14T12:10:43.295Z,1023.86
2018-12-14T12:11:48.822Z,1023.82
2018-12-14T12:12:54.352Z,1023.82
2018-12-14T12:13:59.879Z,1023.82
2018-12-14T12:15:05.410Z,1023.83
2018-12-14T12:16:10.940Z,1023.84
2018-12-14T12:17:16.472Z,1023.86
2018-12-14T12:18:22.002Z,1023.81
2018-12-14T12:19:27.534Z,1023.84
2018-12-14T12:20:33.076Z,1023.83
2018-12-14T12:21:38.593Z,1023.79
2018-12-14T12:22:44.129Z,1023.83
2018-12-14T12:23:55.044Z,1023.82
2018-12-14T12:24:55.186Z,1023.82
2018-12-14T12:26:00.722Z,1023.88
2018-12-14T12:27:06.250Z,1023.87
2018-12-14T12:28:11.778Z,1023.88
2018-12-14T12:29:17.314Z,1023.88
2018-12-14T12:30:22.840Z,1023.92
2018-12-14T12:31:28.368Z,1023.90
2018-12-14T12:32:33.900Z,1023.91
2018-12-14T12:33:39.432Z,1023.96
2018-12-14T12:34:44.971Z,1023.91
2018-12-14T12:35:50.491Z,1023.89
2018-12-14T12:36:56.028Z,1023.92
2018-12-14T12:38:01.553Z,1023.88
2018-12-14T12:39:07.081Z,1023.83
2018-12-14T12:40:12.614Z,1023.89
2018-12-14T12:41:18.148Z,1023.89
2018-12-14T12:42:23.681Z,1023.89
2018-12-14T12:43:29.203Z,1023.83
2018-12-14T12:44:34.734Z,1023.90
2018-12-14T12:45:40.269Z,1023.88
2018-12-14T12:46:45.798Z,1023.89
2018-12-14T12:47:51.325Z,1023.91
2018-12-14T12:48:56.858Z,1023.88
2018-12-14T12:50:02.386Z,1023.87
2018-12-14T12:51:07.924Z,1023.90
2018-12-14T12:52:13.477Z,1023.90
2018-12-14T12:53:18.979Z,1023.89
2018-12-14T12:54:24.510Z,1023.91
2018-12-14T12:55:30.038Z,1023.93
2018-12-14T12:56:35.573Z,1023.91
2018-12-14T12:57:41.099Z,1023.86
2018-12-14T12:58:46.631Z,1023.86
2018-12-14T12:59:52.159Z,1023.89
2018-12-14T13:00:57.697Z,1023.91
2018-12-14T13:02:03.219Z,1023.92
2018-12-14T13:03:08.750Z,1023.92
2018-12-14T13:04:14.287Z,1023.87
2018-12-14T13:05:19.816Z,1023.86
2018-12-14T13:06:25.341Z,1023.84
2018-12-14T13:07:30.875Z,1023.85
2018-12-14T13:08:36.402Z,1023.84
2018-12-14T13:09:41.935Z,1023.86
2018-12-14T13:10:47.460Z,1023.88
2018-12-14T13:11:52.990Z,1023.86
2018-12-14T13:12:58.523Z,1023.89
2018-12-14T13:14:04.059Z,1023.87